sensor_id;sensor_type;location;lat;lon;timestamp;pressure;altitude;pressure_sealevel;temperature;humidity
7157;BME280;3620;49.862;8.758;2023-03-09T00:00:37;96614.78;;;14.48;92.80
7157;BME280;3620;49.862;8.758;2023-03-09T00:03:04;96615.59;;;14.49;92.60
7157;BME280;3620;49.862;8.758;2023-03-09T00:05:30;96618.91;;;14.25;93.52
7157;BME280;3620;49.862;8.758;2023-03-09T00:07:57;96628.28;;;14.37;93.43
7157;BME280;3620;49.862;8.758;2023-03-09T00:10:24;96628.44;;;14.18;92.98
7157;BME280;3620;49.862;8.758;2023-03-09T00:12:51;96626.44;;;14.12;94.39
7157;BME280;3620;49.862;8.758;2023-03-09T00:15:18;96623.38;;;13.99;96.15
7157;BME280;3620;49.862;8.758;2023-03-09T00:17:44;96619.63;;;14.10;95.19
7157;BME280;3620;49.862;8.758;2023-03-09T00:20:11;96622.44;;;14.08;96.86
7157;BME280;3620;49.862;8.758;2023-03-09T00:22:42;96611.66;;;14.27;95.07
7157;BME280;3620;49.862;8.758;2023-03-09T00:25:09;96604.31;;;14.13;97.17
7157;BME280;3620;49.862;8.758;2023-03-09T00:27:40;96617.78;;;14.02;97.39
7157;BME280;3620;49.862;8.758;2023-03-09T00:30:08;96618.81;;;13.66;100.00
7157;BME280;3620;49.862;8.758;2023-03-09T00:32:35;96611.56;;;13.68;100.00
7157;BME280;3620;49.862;8.758;2023-03-09T00:35:01;96619.22;;;13.71;100.00
7157;BME280;3620;49.862;8.758;2023-03-09T00:37:28;96636.09;;;13.43;100.00
7157;BME280;3620;49.862;8.758;2023-03-09T00:39:55;96643.41;;;13.31;100.00
7157;BME280;3620;49.862;8.758;2023-03-09T00:42:21;96629.16;;;13.77;99.19
7157;BME280;3620;49.862;8.758;2023-03-09T00:44:49;96638.63;;;13.44;100.00
7157;BME280;3620;49.862;8.758;2023-03-09T00:47:16;96638.97;;;13.49;100.00
7157;BME280;3620;49.862;8.758;2023-03-09T00:49:43;96638.22;;;13.21;100.00
7157;BME280;3620;49.862;8.758;2023-03-09T00:52:10;96648.41;;;13.69;99.32
7157;BME280;3620;49.862;8.758;2023-03-09T00:54:37;96637.38;;;13.39;100.00
7157;BME280;3620;49.862;8.758;2023-03-09T00:57:03;96646.13;;;13.21;100.00
7157;BME280;3620;49.862;8.758;2023-03-09T00:59:30;96650.13;;;13.26;100.00
7157;BME280;3620;49.862;8.758;2023-03-09T01:01:57;96653.16;;;13.31;100.00
7157;BME280;3620;49.862;8.758;2023-03-09T01:04:24;96651.19;;;13.33;100.00
7157;BME280;3620;49.862;8.758;2023-03-09T01:06:53;96638.88;;;12.96;100.00
7157;BME280;3620;49.862;8.758;2023-03-09T01:09:19;96639.50;;;13.17;100.00
7157;BME280;3620;49.862;8.758;2023-03-09T01:11:46;96660.97;;;13.22;99.43
7157;BME280;3620;49.862;8.758;2023-03-09T01:14:13;96658.53;;;13.11;100.00
7157;BME280;3620;49.862;8.758;2023-03-09T01:16:39;96657.13;;;13.17;99.79
7157;BME280;3620;49.862;8.758;2023-03-09T01:19:07;96653.72;;;13.24;100.00
7157;BME280;3620;49.862;8.758;2023-03-09T01:21:33;96648.94;;;13.38;99.30
7157;BME280;3620;49.862;8.758;2023-03-09T01:24:00;96655.47;;;13.34;99.28
7157;BME280;3620;49.862;8.758;2023-03-09T01:26:26;96666.56;;;13.19;99.97
7157;BME280;3620;49.862;8.758;2023-03-09T01:28:53;96660.22;;;13.12;100.00
7157;BME280;3620;49.862;8.758;2023-03-09T01:31:20;96660.31;;;13.20;100.00
7157;BME280;3620;49.862;8.758;2023-03-09T01:33:47;96662.50;;;13.78;98.20
7157;BME280;3620;49.862;8.758;2023-03-09T01:36:17;96660.88;;;13.42;99.33
7157;BME280;3620;49.862;8.758;2023-03-09T01:38:45;96663.25;;;13.17;100.00
7157;BME280;3620;49.862;8.758;2023-03-09T01:41:13;96652.09;;;13.23;99.76
7157;BME280;3620;49.862;8.758;2023-03-09T01:43:42;96661.00;;;13.58;98.57
7157;BME280;3620;49.862;8.758;2023-03-09T01:46:28;96661.00;;;13.58;98.70
7157;BME280;3620;49.862;8.758;2023-03-09T01:48:58;96658.66;;;13.37;98.13
7157;BME280;3620;49.862;8.758;2023-03-09T01:51:30;96658.91;;;13.61;97.83
7157;BME280;3620;49.862;8.758;2023-03-09T01:53:59;96667.78;;;13.43;98.13
7157;BME280;3620;49.862;8.758;2023-03-09T01:56:28;96670.78;;;13.12;99.69
7157;BME280;3620;49.862;8.758;2023-03-09T01:58:56;96675.47;;;13.36;98.32
7157;BME280;3620;49.862;8.758;2023-03-09T02:01:23;96671.03;;;13.37;97.33
7157;BME280;3620;49.862;8.758;2023-03-09T02:03:57;96670.28;;;12.99;100.00
7157;BME280;3620;49.862;8.758;2023-03-09T02:06:26;96679.97;;;13.08;99.17
7157;BME280;3620;49.862;8.758;2023-03-09T02:08:59;96692.75;;;13.03;99.56
7157;BME280;3620;49.862;8.758;2023-03-09T02:11:27;96698.53;;;13.16;99.50
7157;BME280;3620;49.862;8.758;2023-03-09T02:13:53;96688.84;;;13.07;99.30
7157;BME280;3620;49.862;8.758;2023-03-09T02:16:20;96700.63;;;12.76;100.00
7157;BME280;3620;49.862;8.758;2023-03-09T02:18:47;96715.66;;;13.12;99.31
7157;BME280;3620;49.862;8.758;2023-03-09T02:21:21;96709.78;;;12.82;100.00
7157;BME280;3620;49.862;8.758;2023-03-09T02:23:56;96729.69;;;13.03;98.54
7157;BME280;3620;49.862;8.758;2023-03-09T02:26:29;96729.72;;;12.94;98.82
7157;BME280;3620;49.862;8.758;2023-03-09T02:28:59;96736.31;;;13.17;98.15
7157;BME280;3620;49.862;8.758;2023-03-09T02:31:26;96736.75;;;13.12;98.91
7157;BME280;3620;49.862;8.758;2023-03-09T02:33:52;96738.06;;;12.89;99.69
7157;BME280;3620;49.862;8.758;2023-03-09T02:36:19;96738.81;;;13.18;99.02
7157;BME280;3620;49.862;8.758;2023-03-09T02:38:46;96739.84;;;13.08;99.14
7157;BME280;3620;49.862;8.758;2023-03-09T02:41:13;96749.66;;;13.15;98.95
7157;BME280;3620;49.862;8.758;2023-03-09T02:43:42;96748.91;;;13.23;98.59
7157;BME280;3620;49.862;8.758;2023-03-09T02:46:11;96749.66;;;13.15;98.67
7157;BME280;3620;49.862;8.758;2023-03-09T02:48:38;96757.34;;;13.54;97.28
7157;BME280;3620;49.862;8.758;2023-03-09T02:51:04;96772.03;;;13.39;97.36
7157;BME280;3620;49.862;8.758;2023-03-09T02:53:31;96774.09;;;13.45;98.35
7157;BME280;3620;49.862;8.758;2023-03-09T02:55:58;96770.97;;;13.59;96.12
7157;BME280;3620;49.862;8.758;2023-03-09T02:58:24;96767.56;;;13.49;97.09
7157;BME280;3620;49.862;8.758;2023-03-09T03:00:51;96776.84;;;13.26;97.53
7157;BME280;3620;49.862;8.758;2023-03-09T03:03:19;96778.84;;;13.14;98.65
7157;BME280;3620;49.862;8.758;2023-03-09T03:05:45;96787.16;;;13.19;98.32
7157;BME280;3620;49.862;8.758;2023-03-09T03:08:12;96772.94;;;13.30;97.22
7157;BME280;3620;49.862;8.758;2023-03-09T03:10:38;96802.44;;;13.15;98.34
7157;BME280;3620;49.862;8.758;2023-03-09T03:13:05;96793.41;;;13.18;98.08
7157;BME280;3620;49.862;8.758;2023-03-09T03:15:32;96788.56;;;13.13;97.91
7157;BME280;3620;49.862;8.758;2023-03-09T03:17:58;96799.50;;;13.18;97.88
7157;BME280;3620;49.862;8.758;2023-03-09T03:20:26;96795.50;;;13.14;99.58
7157;BME280;3620;49.862;8.758;2023-03-09T03:22:53;96825.72;;;13.30;98.29
7157;BME280;3620;49.862;8.758;2023-03-09T03:25:20;96812.44;;;13.02;100.00
7157;BME280;3620;49.862;8.758;2023-03-09T03:27:46;96818.72;;;13.11;99.76
7157;BME280;3620;49.862;8.758;2023-03-09T03:30:13;96814.91;;;13.23;99.68
7157;BME280;3620;49.862;8.758;2023-03-09T03:32:40;96821.25;;;13.40;98.35
7157;BME280;3620;49.862;8.758;2023-03-09T03:35:07;96831.50;;;13.43;97.66
7157;BME280;3620;49.862;8.758;2023-03-09T03:37:35;96849.34;;;13.31;98.26
7157;BME280;3620;49.862;8.758;2023-03-09T03:40:02;96860.69;;;12.85;100.00
7157;BME280;3620;49.862;8.758;2023-03-09T03:42:33;96864.22;;;12.57;100.00
7157;BME280;3620;49.862;8.758;2023-03-09T03:45:00;96865.44;;;12.72;100.00
7157;BME280;3620;49.862;8.758;2023-03-09T03:47:26;96883.63;;;12.75;100.00
7157;BME280;3620;49.862;8.758;2023-03-09T03:49:52;96874.59;;;12.68;99.64
7157;BME280;3620;49.862;8.758;2023-03-09T03:52:19;96897.81;;;12.55;100.00
7157;BME280;3620;49.862;8.758;2023-03-09T03:54:47;96909.84;;;12.86;99.90
7157;BME280;3620;49.862;8.758;2023-03-09T03:57:13;96908.75;;;12.79;99.65
7157;BME280;3620;49.862;8.758;2023-03-09T03:59:40;96921.63;;;13.01;97.79
7157;BME280;3620;49.862;8.758;2023-03-09T04:02:06;96921.63;;;12.92;98.84
7157;BME280;3620;49.862;8.758;2023-03-09T04:04:33;96926.06;;;13.01;98.53
7157;BME280;3620;49.862;8.758;2023-03-09T04:06:59;96928.19;;;12.88;99.93
7157;BME280;3620;49.862;8.758;2023-03-09T04:09:25;96943.88;;;12.70;99.88
7157;BME280;3620;49.862;8.758;2023-03-09T04:11:54;96939.97;;;12.74;99.60
7157;BME280;3620;49.862;8.758;2023-03-09T04:14:21;96954.41;;;12.89;98.74
7157;BME280;3620;49.862;8.758;2023-03-09T04:16:47;96957.47;;;12.94;98.82
7157;BME280;3620;49.862;8.758;2023-03-09T04:19:14;96965.25;;;12.96;98.49
7157;BME280;3620;49.862;8.758;2023-03-09T04:21:40;96960.53;;;12.90;98.12
7157;BME280;3620;49.862;8.758;2023-03-09T04:24:07;96969.69;;;12.76;99.09
7157;BME280;3620;49.862;8.758;2023-03-09T04:26:33;96974.97;;;12.57;99.62
7157;BME280;3620;49.862;8.758;2023-03-09T04:29:01;96984.00;;;12.64;99.71
7157;BME280;3620;49.862;8.758;2023-03-09T04:31:27;96991.34;;;12.99;97.92
7157;BME280;3620;49.862;8.758;2023-03-09T04:33:54;96992.78;;;13.12;97.65
7157;BME280;3620;49.862;8.758;2023-03-09T04:36:20;97006.66;;;12.95;97.92
7157;BME280;3620;49.862;8.758;2023-03-09T04:38:47;97010.97;;;13.06;97.39
7157;BME280;3620;49.862;8.758;2023-03-09T04:41:14;97019.44;;;13.19;97.59
7157;BME280;3620;49.862;8.758;2023-03-09T04:43:40;97017.06;;;13.35;95.50
7157;BME280;3620;49.862;8.758;2023-03-09T04:46:08;97017.91;;;13.16;95.13
7157;BME280;3620;49.862;8.758;2023-03-09T04:48:34;97027.50;;;13.17;95.71
7157;BME280;3620;49.862;8.758;2023-03-09T04:51:01;97023.88;;;13.18;94.49
7157;BME280;3620;49.862;8.758;2023-03-09T04:53:27;97040.56;;;13.09;96.14
7157;BME280;3620;49.862;8.758;2023-03-09T04:55:54;97039.72;;;13.09;95.72
7157;BME280;3620;49.862;8.758;2023-03-09T04:58:20;97053.75;;;13.09;95.57
7157;BME280;3620;49.862;8.758;2023-03-09T05:00:47;97047.78;;;13.36;93.74
7157;BME280;3620;49.862;8.758;2023-03-09T05:03:14;97055.81;;;13.15;95.03
7157;BME280;3620;49.862;8.758;2023-03-09T05:05:41;97061.56;;;13.11;94.95
7157;BME280;3620;49.862;8.758;2023-03-09T05:08:07;97070.00;;;13.53;92.08
7157;BME280;3620;49.862;8.758;2023-03-09T05:10:34;97071.53;;;13.55;92.31
7157;BME280;3620;49.862;8.758;2023-03-09T05:13:01;97081.38;;;13.82;90.95
7157;BME280;3620;49.862;8.758;2023-03-09T05:15:27;97075.81;;;13.66;90.27
7157;BME280;3620;49.862;8.758;2023-03-09T05:17:53;97080.00;;;13.49;91.80
7157;BME280;3620;49.862;8.758;2023-03-09T05:20:22;97087.38;;;13.46;91.61
7157;BME280;3620;49.862;8.758;2023-03-09T05:22:48;97089.47;;;13.52;91.03
7157;BME280;3620;49.862;8.758;2023-03-09T05:25:15;97092.69;;;13.27;92.00
7157;BME280;3620;49.862;8.758;2023-03-09T05:27:41;97098.91;;;13.45;90.61
7157;BME280;3620;49.862;8.758;2023-03-09T05:30:09;97104.03;;;13.56;90.66
7157;BME280;3620;49.862;8.758;2023-03-09T05:32:35;97107.81;;;13.44;90.05
7157;BME280;3620;49.862;8.758;2023-03-09T05:35:02;97123.34;;;13.18;91.93
7157;BME280;3620;49.862;8.758;2023-03-09T05:37:32;97118.50;;;13.42;91.58
7157;BME280;3620;49.862;8.758;2023-03-09T05:39:58;97116.72;;;13.33;91.86
7157;BME280;3620;49.862;8.758;2023-03-09T05:42:25;97125.19;;;13.17;91.33
7157;BME280;3620;49.862;8.758;2023-03-09T05:44:51;97127.53;;;13.20;91.50
7157;BME280;3620;49.862;8.758;2023-03-09T05:47:18;97131.41;;;13.07;92.33
7157;BME280;3620;49.862;8.758;2023-03-09T05:49:48;97135.63;;;13.29;90.73
7157;BME280;3620;49.862;8.758;2023-03-09T05:52:14;97150.44;;;13.20;91.17
7157;BME280;3620;49.862;8.758;2023-03-09T05:54:42;97150.56;;;13.09;92.08
7157;BME280;3620;49.862;8.758;2023-03-09T05:57:09;97160.59;;;13.24;90.77
7157;BME280;3620;49.862;8.758;2023-03-09T05:59:36;97159.47;;;13.08;91.61
7157;BME280;3620;49.862;8.758;2023-03-09T06:02:03;97171.16;;;13.24;91.32
7157;BME280;3620;49.862;8.758;2023-03-09T06:04:29;97173.03;;;13.03;91.56
7157;BME280;3620;49.862;8.758;2023-03-09T06:06:56;97177.19;;;13.46;91.01
7157;BME280;3620;49.862;8.758;2023-03-09T06:09:23;97189.81;;;13.52;90.35
7157;BME280;3620;49.862;8.758;2023-03-09T06:11:52;97181.47;;;13.47;90.41
7157;BME280;3620;49.862;8.758;2023-03-09T06:14:18;97189.81;;;13.52;90.40
7157;BME280;3620;49.862;8.758;2023-03-09T06:16:45;97190.34;;;13.36;90.11
7157;BME280;3620;49.862;8.758;2023-03-09T06:19:14;97196.75;;;13.34;90.44
7157;BME280;3620;49.862;8.758;2023-03-09T06:21:40;97203.47;;;13.76;88.66
7157;BME280;3620;49.862;8.758;2023-03-09T06:24:08;97209.72;;;13.75;88.39
7157;BME280;3620;49.862;8.758;2023-03-09T06:26:35;97205.16;;;13.86;87.51
7157;BME280;3620;49.862;8.758;2023-03-09T06:29:03;97212.66;;;13.91;86.43
7157;BME280;3620;49.862;8.758;2023-03-09T06:31:30;97221.13;;;13.66;88.54
7157;BME280;3620;49.862;8.758;2023-03-09T06:33:57;97216.53;;;13.68;88.57
7157;BME280;3620;49.862;8.758;2023-03-09T06:36:23;97231.25;;;13.42;89.45
7157;BME280;3620;49.862;8.758;2023-03-09T06:38:50;97230.69;;;13.48;89.39
7157;BME280;3620;49.862;8.758;2023-03-09T06:41:16;97224.44;;;13.39;90.31
7157;BME280;3620;49.862;8.758;2023-03-09T06:43:52;97224.53;;;13.28;91.28
7157;BME280;3620;49.862;8.758;2023-03-09T06:46:20;97225.91;;;13.22;90.94
7157;BME280;3620;49.862;8.758;2023-03-09T06:48:46;97230.44;;;13.51;90.56
7157;BME280;3620;49.862;8.758;2023-03-09T06:51:13;97240.53;;;13.27;90.98
7157;BME280;3620;49.862;8.758;2023-03-09T06:53:39;97243.63;;;13.51;89.97
7157;BME280;3620;49.862;8.758;2023-03-09T06:56:06;97252.66;;;13.58;89.46
7157;BME280;3620;49.862;8.758;2023-03-09T06:58:34;97243.09;;;13.76;88.54
7157;BME280;3620;49.862;8.758;2023-03-09T07:01:05;97248.22;;;13.58;90.11
7157;BME280;3620;49.862;8.758;2023-03-09T07:03:33;97246.53;;;13.48;90.30
7157;BME280;3620;49.862;8.758;2023-03-09T07:06:00;97263.78;;;13.52;90.28
7157;BME280;3620;49.862;8.758;2023-03-09T07:08:27;97262.44;;;13.17;92.08
7157;BME280;3620;49.862;8.758;2023-03-09T07:10:53;97257.25;;;13.46;90.29
7157;BME280;3620;49.862;8.758;2023-03-09T07:13:20;97263.28;;;13.77;87.86
7157;BME280;3620;49.862;8.758;2023-03-09T07:15:47;97274.13;;;13.64;87.98
7157;BME280;3620;49.862;8.758;2023-03-09T07:18:13;97272.41;;;13.54;88.10
7157;BME280;3620;49.862;8.758;2023-03-09T07:20:41;97287.72;;;13.60;88.01
7157;BME280;3620;49.862;8.758;2023-03-09T07:23:09;97285.53;;;13.84;87.47
7157;BME280;3620;49.862;8.758;2023-03-09T07:25:36;97282.38;;;13.41;89.46
7157;BME280;3620;49.862;8.758;2023-03-09T07:28:03;97292.44;;;13.56;91.66
7157;BME280;3620;49.862;8.758;2023-03-09T07:30:31;97291.19;;;13.51;91.93
7157;BME280;3620;49.862;8.758;2023-03-09T07:32:58;97290.59;;;13.38;92.48
7157;BME280;3620;49.862;8.758;2023-03-09T07:35:26;97293.44;;;13.25;93.02
7157;BME280;3620;49.862;8.758;2023-03-09T07:37:54;97299.66;;;13.54;91.47
7157;BME280;3620;49.862;8.758;2023-03-09T07:40:20;97302.03;;;13.67;91.24
7157;BME280;3620;49.862;8.758;2023-03-09T07:42:48;97310.00;;;13.76;90.45
7157;BME280;3620;49.862;8.758;2023-03-09T07:45:17;97306.38;;;13.68;89.72
7157;BME280;3620;49.862;8.758;2023-03-09T07:47:44;97317.63;;;13.70;90.70
7157;BME280;3620;49.862;8.758;2023-03-09T07:50:11;97321.44;;;13.86;89.48
7157;BME280;3620;49.862;8.758;2023-03-09T07:52:37;97335.34;;;13.98;89.23
7157;BME280;3620;49.862;8.758;2023-03-09T07:55:06;97331.72;;;13.99;88.99
7157;BME280;3620;49.862;8.758;2023-03-09T07:57:33;97325.19;;;13.84;89.34
7157;BME280;3620;49.862;8.758;2023-03-09T08:00:00;97329.47;;;13.85;88.24
7157;BME280;3620;49.862;8.758;2023-03-09T08:02:31;97333.97;;;14.23;87.65
7157;BME280;3620;49.862;8.758;2023-03-09T08:04:57;97350.38;;;14.07;86.66
7157;BME280;3620;49.862;8.758;2023-03-09T08:07:24;97341.19;;;14.11;87.39
7157;BME280;3620;49.862;8.758;2023-03-09T08:09:51;97349.84;;;14.13;87.64
7157;BME280;3620;49.862;8.758;2023-03-09T08:12:19;97364.34;;;14.28;86.89
7157;BME280;3620;49.862;8.758;2023-03-09T08:14:45;97374.50;;;13.74;88.70
7157;BME280;3620;49.862;8.758;2023-03-09T08:17:12;97353.97;;;13.87;88.27
7157;BME280;3620;49.862;8.758;2023-03-09T08:19:39;97359.88;;;14.19;87.95
7157;BME280;3620;49.862;8.758;2023-03-09T08:22:05;97362.00;;;14.35;86.23
7157;BME280;3620;49.862;8.758;2023-03-09T08:24:32;97363.75;;;14.06;88.21
7157;BME280;3620;49.862;8.758;2023-03-09T08:26:58;97372.16;;;14.39;85.99
7157;BME280;3620;49.862;8.758;2023-03-09T08:29:26;97374.50;;;13.64;88.03
7157;BME280;3620;49.862;8.758;2023-03-09T08:31:53;97394.06;;;14.11;87.65
7157;BME280;3620;49.862;8.758;2023-03-09T08:34:20;97392.91;;;13.75;87.93
7157;BME280;3620;49.862;8.758;2023-03-09T08:36:47;97395.25;;;13.78;89.00
7157;BME280;3620;49.862;8.758;2023-03-09T08:39:13;97391.50;;;13.81;88.07
7157;BME280;3620;49.862;8.758;2023-03-09T08:41:40;97398.25;;;14.04;88.54
7157;BME280;3620;49.862;8.758;2023-03-09T08:44:07;97390.72;;;14.09;86.51
7157;BME280;3620;49.862;8.758;2023-03-09T08:46:35;97411.28;;;13.96;86.93
7157;BME280;3620;49.862;8.758;2023-03-09T08:49:02;97417.16;;;14.00;87.02
7157;BME280;3620;49.862;8.758;2023-03-09T08:51:28;97415.78;;;14.05;87.26
7157;BME280;3620;49.862;8.758;2023-03-09T08:53:55;97406.06;;;14.15;86.36
7157;BME280;3620;49.862;8.758;2023-03-09T08:56:22;97425.50;;;13.95;86.86
7157;BME280;3620;49.862;8.758;2023-03-09T08:58:48;97423.34;;;14.19;86.30
7157;BME280;3620;49.862;8.758;2023-03-09T09:01:15;97430.25;;;14.01;86.19
7157;BME280;3620;49.862;8.758;2023-03-09T09:03:42;97430.09;;;13.93;86.98
7157;BME280;3620;49.862;8.758;2023-03-09T09:06:10;97434.19;;;14.26;85.39
7157;BME280;3620;49.862;8.758;2023-03-09T09:08:38;97441.38;;;13.95;86.38
7157;BME280;3620;49.862;8.758;2023-03-09T09:11:06;97442.59;;;14.31;84.42
7157;BME280;3620;49.862;8.758;2023-03-09T09:13:33;97437.75;;;14.55;83.37
7157;BME280;3620;49.862;8.758;2023-03-09T09:16:00;97451.44;;;14.20;84.68
7157;BME280;3620;49.862;8.758;2023-03-09T09:18:27;97454.00;;;14.31;84.67
7157;BME280;3620;49.862;8.758;2023-03-09T09:20:54;97448.44;;;14.34;83.94
7157;BME280;3620;49.862;8.758;2023-03-09T09:23:21;97458.41;;;14.21;85.19
7157;BME280;3620;49.862;8.758;2023-03-09T09:25:53;97450.53;;;14.31;84.82
7157;BME280;3620;49.862;8.758;2023-03-09T09:28:20;97465.06;;;14.16;84.85
7157;BME280;3620;49.862;8.758;2023-03-09T09:30:52;97469.94;;;14.20;84.42
7157;BME280;3620;49.862;8.758;2023-03-09T09:33:20;97470.13;;;14.28;84.02
7157;BME280;3620;49.862;8.758;2023-03-09T09:35:55;97473.22;;;14.33;83.65
7157;BME280;3620;49.862;8.758;2023-03-09T09:38:23;97473.97;;;14.54;84.14
7157;BME280;3620;49.862;8.758;2023-03-09T09:40:50;97488.31;;;14.71;82.74
7157;BME280;3620;49.862;8.758;2023-03-09T09:43:17;97489.91;;;13.94;86.71
7157;BME280;3620;49.862;8.758;2023-03-09T09:45:44;97485.13;;;14.18;85.24
7157;BME280;3620;49.862;8.758;2023-03-09T09:48:14;97495.09;;;14.35;84.38
7157;BME280;3620;49.862;8.758;2023-03-09T09:50:57;97493.00;;;14.39;84.32
7157;BME280;3620;49.862;8.758;2023-03-09T09:53:34;97496.91;;;14.44;82.72
7157;BME280;3620;49.862;8.758;2023-03-09T09:56:07;97501.09;;;14.47;82.70
7157;BME280;3620;49.862;8.758;2023-03-09T09:58:38;97516.47;;;14.82;81.97
7157;BME280;3620;49.862;8.758;2023-03-09T10:01:13;97509.72;;;14.39;83.32
7157;BME280;3620;49.862;8.758;2023-03-09T10:03:45;97507.84;;;14.99;80.63
7157;BME280;3620;49.862;8.758;2023-03-09T10:06:17;97501.59;;;15.00;79.98
7157;BME280;3620;49.862;8.758;2023-03-09T10:08:46;97498.34;;;14.67;81.45
7157;BME280;3620;49.862;8.758;2023-03-09T10:11:22;97515.09;;;14.78;80.62
7157;BME280;3620;49.862;8.758;2023-03-09T10:13:53;97522.03;;;14.79;80.96
7157;BME280;3620;49.862;8.758;2023-03-09T10:16:24;97520.38;;;15.25;78.64
7157;BME280;3620;49.862;8.758;2023-03-09T10:18:54;97524.56;;;15.09;79.68
7157;BME280;3620;49.862;8.758;2023-03-09T10:21:28;97531.50;;;14.72;81.13
7157;BME280;3620;49.862;8.758;2023-03-09T10:24:01;97524.13;;;14.85;79.90
7157;BME280;3620;49.862;8.758;2023-03-09T10:26:41;97532.78;;;14.87;80.03
7157;BME280;3620;49.862;8.758;2023-03-09T10:29:15;97536.50;;;14.65;81.28
7157;BME280;3620;49.862;8.758;2023-03-09T10:31:48;97545.97;;;14.67;80.33
7157;BME280;3620;49.862;8.758;2023-03-09T10:34:20;97551.34;;;15.06;79.45
7157;BME280;3620;49.862;8.758;2023-03-09T10:36:58;97549.69;;;15.24;78.45
7157;BME280;3620;49.862;8.758;2023-03-09T10:39:28;97551.47;;;14.95;78.88
7157;BME280;3620;49.862;8.758;2023-03-09T10:41:58;97559.00;;;15.28;77.88
7157;BME280;3620;49.862;8.758;2023-03-09T10:44:28;97570.03;;;15.52;76.78
7157;BME280;3620;49.862;8.758;2023-03-09T10:46:57;97558.88;;;15.20;77.31
7157;BME280;3620;49.862;8.758;2023-03-09T10:49:25;97570.16;;;15.31;77.77
7157;BME280;3620;49.862;8.758;2023-03-09T10:51:58;97555.22;;;15.40;76.22
7157;BME280;3620;49.862;8.758;2023-03-09T10:54:29;97578.06;;;14.84;79.41
7157;BME280;3620;49.862;8.758;2023-03-09T10:56:58;97577.13;;;15.13;78.08
7157;BME280;3620;49.862;8.758;2023-03-09T10:59:25;97573.63;;;15.22;78.88
7157;BME280;3620;49.862;8.758;2023-03-09T11:01:54;97586.19;;;15.30;77.56
7157;BME280;3620;49.862;8.758;2023-03-09T11:04:27;97569.19;;;15.23;77.01
7157;BME280;3620;49.862;8.758;2023-03-09T11:06:57;97584.25;;;15.41;76.70
7157;BME280;3620;49.862;8.758;2023-03-09T11:09:28;97595.59;;;15.53;76.07
7157;BME280;3620;49.862;8.758;2023-03-09T11:12:08;97583.56;;;15.49;76.76
7157;BME280;3620;49.862;8.758;2023-03-09T11:14:41;97591.66;;;15.57;75.64
7157;BME280;3620;49.862;8.758;2023-03-09T11:17:25;97594.28;;;15.38;77.10
7157;BME280;3620;49.862;8.758;2023-03-09T11:20:18;97593.19;;;15.31;77.60
7157;BME280;3620;49.862;8.758;2023-03-09T11:22:50;97596.53;;;15.33;76.57
7157;BME280;3620;49.862;8.758;2023-03-09T11:25:21;97606.56;;;15.68;76.10
7157;BME280;3620;49.862;8.758;2023-03-09T11:27:54;97592.88;;;15.34;77.88
7157;BME280;3620;49.862;8.758;2023-03-09T11:30:23;97605.19;;;15.64;76.41
7157;BME280;3620;49.862;8.758;2023-03-09T11:32:53;97610.06;;;15.68;76.04
7157;BME280;3620;49.862;8.758;2023-03-09T11:35:22;97604.34;;;15.63;78.21
7157;BME280;3620;49.862;8.758;2023-03-09T11:37:54;97593.88;;;15.71;78.61
7157;BME280;3620;49.862;8.758;2023-03-09T11:40:25;97606.19;;;16.28;75.27
7157;BME280;3620;49.862;8.758;2023-03-09T11:42:57;97609.25;;;16.24;75.64
7157;BME280;3620;49.862;8.758;2023-03-09T11:45:27;97608.75;;;16.57;73.42
7157;BME280;3620;49.862;8.758;2023-03-09T11:47:58;97622.69;;;16.12;75.58
7157;BME280;3620;49.862;8.758;2023-03-09T11:50:29;97618.34;;;16.11;75.40
7157;BME280;3620;49.862;8.758;2023-03-09T11:53:00;97618.69;;;16.55;74.25
7157;BME280;3620;49.862;8.758;2023-03-09T11:55:33;97621.41;;;16.72;73.46
7157;BME280;3620;49.862;8.758;2023-03-09T11:58:04;97612.53;;;16.45;73.59
7157;BME280;3620;49.862;8.758;2023-03-09T12:00:33;97606.06;;;16.66;73.18
7157;BME280;3620;49.862;8.758;2023-03-09T12:03:05;97613.28;;;16.74;72.49
7157;BME280;3620;49.862;8.758;2023-03-09T12:05:39;97614.47;;;16.62;72.85
7157;BME280;3620;49.862;8.758;2023-03-09T12:08:14;97606.59;;;16.24;73.94
7157;BME280;3620;49.862;8.758;2023-03-09T12:10:46;97618.59;;;16.74;72.70
7157;BME280;3620;49.862;8.758;2023-03-09T12:13:17;97619.03;;;16.97;71.77
7157;BME280;3620;49.862;8.758;2023-03-09T12:15:50;97620.25;;;17.02;71.41
7157;BME280;3620;49.862;8.758;2023-03-09T12:18:20;97616.41;;;17.49;69.45
7157;BME280;3620;49.862;8.758;2023-03-09T12:20:51;97601.94;;;17.79;68.43
7157;BME280;3620;49.862;8.758;2023-03-09T12:23:45;97607.88;;;17.73;67.63
7157;BME280;3620;49.862;8.758;2023-03-09T12:26:22;97604.97;;;17.67;68.68
7157;BME280;3620;49.862;8.758;2023-03-09T12:29:04;97619.03;;;17.77;68.00
7157;BME280;3620;49.862;8.758;2023-03-09T12:31:40;97600.72;;;17.56;68.36
7157;BME280;3620;49.862;8.758;2023-03-09T12:34:27;97612.59;;;17.17;68.49
7157;BME280;3620;49.862;8.758;2023-03-09T12:40:19;97598.91;;;17.56;67.64
7157;BME280;3620;49.862;8.758;2023-03-09T12:42:51;97611.38;;;17.29;68.26
7157;BME280;3620;49.862;8.758;2023-03-09T12:45:27;97591.94;;;16.93;68.39
7157;BME280;3620;49.862;8.758;2023-03-09T12:47:57;97605.03;;;17.39;68.05
7157;BME280;3620;49.862;8.758;2023-03-09T12:50:39;97597.41;;;17.44;67.24
7157;BME280;3620;49.862;8.758;2023-03-09T12:53:17;97580.22;;;16.86;67.37
7157;BME280;3620;49.862;8.758;2023-03-09T12:55:50;97584.19;;;16.82;67.34
7157;BME280;3620;49.862;8.758;2023-03-09T12:58:36;97594.06;;;17.07;67.01
7157;BME280;3620;49.862;8.758;2023-03-09T13:01:05;97593.41;;;17.23;66.69
7157;BME280;3620;49.862;8.758;2023-03-09T13:03:35;97592.25;;;17.25;66.53
7157;BME280;3620;49.862;8.758;2023-03-09T13:06:04;97590.84;;;16.86;67.23
7157;BME280;3620;49.862;8.758;2023-03-09T13:08:37;97581.59;;;16.90;67.85
7157;BME280;3620;49.862;8.758;2023-03-09T13:11:32;97591.56;;;17.50;66.24
7157;BME280;3620;49.862;8.758;2023-03-09T13:14:00;97569.41;;;17.32;66.27
7157;BME280;3620;49.862;8.758;2023-03-09T13:16:46;97583.31;;;17.44;66.71
7157;BME280;3620;49.862;8.758;2023-03-09T13:22:24;97573.38;;;17.46;64.00
7157;BME280;3620;49.862;8.758;2023-03-09T13:25:13;97592.00;;;17.64;63.63
7157;BME280;3620;49.862;8.758;2023-03-09T13:27:42;97581.91;;;17.93;62.40
7157;BME280;3620;49.862;8.758;2023-03-09T13:30:17;97584.06;;;17.72;64.01
7157;BME280;3620;49.862;8.758;2023-03-09T13:32:55;97600.47;;;17.85;63.65
7157;BME280;3620;49.862;8.758;2023-03-09T13:35:25;97580.72;;;17.70;64.12